createdAt,value
2017-08-08T00:01:23.006Z,8.93
2017-08-08T00:03:51.290Z,7.32
2017-08-08T00:06:19.541Z,8.82
2017-08-08T00:08:47.055Z,12.02
2017-08-08T00:11:14.548Z,6.50
2017-08-08T00:13:42.063Z,9.52
2017-08-08T00:16:09.559Z,7.22
2017-08-08T00:18:37.070Z,6.47
2017-08-08T00:21:05.326Z,7.53
2017-08-08T00:23:32.833Z,7.18
2017-08-08T00:26:00.333Z,10.55
2017-08-08T00:28:27.952Z,7.00
2017-08-08T00:30:55.446Z,6.87
2017-08-08T00:33:22.958Z,7.45
2017-08-08T00:35:50.455Z,11.20
2017-08-08T00:38:17.970Z,10.00
2017-08-08T00:40:45.462Z,9.50
2017-08-08T00:43:12.951Z,6.85
2017-08-08T00:45:40.461Z,7.25
2017-08-08T00:48:07.958Z,12.82
2017-08-08T00:50:35.469Z,6.87
2017-08-08T00:53:02.962Z,8.50
2017-08-08T00:55:30.478Z,13.38
2017-08-08T00:57:57.966Z,8.55
2017-08-08T01:00:25.482Z,8.80
2017-08-08T01:02:53.745Z,9.15
2017-08-08T01:05:21.255Z,10.48
2017-08-08T01:07:48.751Z,8.65
2017-08-08T01:10:16.267Z,7.37
2017-08-08T01:12:43.763Z,8.55
2017-08-08T01:15:11.270Z,7.28
2017-08-08T01:17:38.762Z,7.60
2017-08-08T01:20:06.283Z,8.45
2017-08-08T01:22:33.775Z,10.85
2017-08-08T01:25:01.291Z,8.48
2017-08-08T01:27:29.545Z,9.65
2017-08-08T01:29:57.057Z,8.40
2017-08-08T01:32:24.558Z,7.90
2017-08-08T01:34:52.041Z,8.93
2017-08-08T01:37:19.554Z,9.52
2017-08-08T01:39:47.050Z,9.70
2017-08-08T01:42:14.568Z,8.57
2017-08-08T01:44:42.062Z,15.88
2017-08-08T01:47:09.574Z,10.68
2017-08-08T01:49:37.066Z,9.52
2017-08-08T01:52:04.583Z,9.60
2017-08-08T01:54:32.070Z,9.82
2017-08-08T01:56:59.563Z,11.30
2017-08-08T01:59:27.075Z,9.70
2017-08-08T02:01:54.577Z,11.15
2017-08-08T02:04:22.857Z,14.13
2017-08-08T02:06:51.118Z,12.60
2017-08-08T02:09:18.634Z,14.00
2017-08-08T02:11:46.134Z,10.90
2017-08-08T02:14:13.641Z,12.02
2017-08-08T02:16:41.138Z,10.30
2017-08-08T02:19:08.670Z,10.80
2017-08-08T02:21:36.162Z,11.10
2017-08-08T02:24:03.662Z,12.88
2017-08-08T02:26:31.177Z,12.88
2017-08-08T02:28:58.675Z,10.07
2017-08-08T02:31:26.958Z,12.93
2017-08-08T02:33:54.450Z,10.45
2017-08-08T02:36:21.966Z,10.48
2017-08-08T02:38:49.467Z,13.27
2017-08-08T02:41:16.980Z,9.50
2017-08-08T02:43:45.246Z,9.90
2017-08-08T02:46:13.521Z,8.98
2017-08-08T02:48:41.014Z,9.45
2017-08-08T02:51:08.545Z,14.20
2017-08-08T02:53:36.038Z,12.35
2017-08-08T02:56:03.537Z,9.68
2017-08-08T02:58:31.050Z,11.68
2017-08-08T03:00:58.559Z,11.52
2017-08-08T03:03:26.089Z,13.35
2017-08-08T03:05:53.586Z,10.73
2017-08-08T03:08:21.107Z,20.10
2017-08-08T03:10:48.606Z,10.27
2017-08-08T03:13:16.123Z,12.25
2017-08-08T03:15:43.625Z,15.23
2017-08-08T03:18:11.138Z,12.85
2017-08-08T03:20:38.633Z,13.20
2017-08-08T03:23:06.154Z,12.82
2017-08-08T03:25:33.650Z,13.13
2017-08-08T03:28:01.146Z,13.90
2017-08-08T03:30:28.676Z,14.52
2017-08-08T03:32:56.946Z,14.98
2017-08-08T03:35:24.471Z,21.92
2017-08-08T03:37:51.986Z,12.00
2017-08-08T03:40:19.513Z,14.15
2017-08-08T03:42:47.007Z,17.83
2017-08-08T03:45:15.291Z,13.55
2017-08-08T03:47:42.794Z,12.50
2017-08-08T03:50:10.314Z,12.75
2017-08-08T03:52:37.814Z,18.20
2017-08-08T03:55:05.330Z,13.73
2017-08-08T03:57:32.830Z,13.57
2017-08-08T04:00:00.367Z,19.12
2017-08-08T04:02:27.866Z,18.05
2017-08-08T04:04:55.362Z,15.98
2017-08-08T04:07:22.885Z,23.73
2017-08-08T04:09:50.379Z,18.40
2017-08-08T04:12:17.894Z,23.30
2017-08-08T04:14:45.389Z,18.83
2017-08-08T04:17:13.674Z,24.12
2017-08-08T04:19:41.183Z,19.17
2017-08-08T04:22:08.698Z,18.83
2017-08-08T04:24:36.194Z,18.00
2017-08-08T04:27:03.718Z,18.05
2017-08-08T04:29:31.219Z,21.35
2017-08-08T04:31:58.734Z,15.10
2017-08-08T04:34:26.230Z,15.10
2017-08-08T04:36:53.754Z,16.62
2017-08-08T04:39:21.250Z,16.85
2017-08-08T04:41:48.746Z,16.10
2017-08-08T04:44:17.030Z,16.48
2017-08-08T04:46:45.294Z,16.33
2017-08-08T04:49:12.806Z,14.05
2017-08-08T04:51:40.306Z,17.05
2017-08-08T04:54:07.830Z,16.65
2017-08-08T04:56:35.323Z,16.98
2017-08-08T04:59:02.838Z,17.77
2017-08-08T05:01:30.339Z,16.87
2017-08-08T05:03:57.863Z,24.55
2017-08-08T05:06:25.362Z,20.40
2017-08-08T05:08:52.870Z,16.95
2017-08-08T05:11:20.407Z,18.08
2017-08-08T05:13:47.914Z,18.67
2017-08-08T05:16:15.431Z,19.67
2017-08-08T05:18:42.931Z,23.35
2017-08-08T05:21:10.447Z,26.48
2017-08-08T05:23:37.946Z,21.05
2017-08-08T05:26:05.465Z,21.02
2017-08-08T05:28:32.962Z,21.80
2017-08-08T05:31:00.482Z,18.15
2017-08-08T05:33:27.982Z,16.08
2017-08-08T05:35:55.502Z,18.33
2017-08-08T05:38:22.997Z,14.87
2017-08-08T05:40:50.510Z,13.62
2017-08-08T05:43:18.799Z,15.27
2017-08-08T05:45:46.294Z,13.80
2017-08-08T05:48:13.813Z,17.55
2017-08-08T05:50:41.318Z,12.63
2017-08-08T05:53:08.837Z,12.57
2017-08-08T05:55:36.342Z,12.30
2017-08-08T05:58:03.854Z,13.35
2017-08-08T06:00:31.352Z,12.82
2017-08-08T06:02:58.887Z,13.68
2017-08-08T06:05:26.388Z,15.73
2017-08-08T06:07:53.930Z,14.38
2017-08-08T06:10:21.426Z,11.98
2017-08-08T06:12:49.727Z,13.98
2017-08-08T06:15:17.227Z,15.02
2017-08-08T06:17:44.726Z,10.05
2017-08-08T06:20:13.009Z,9.20
2017-08-08T06:22:40.502Z,10.02
2017-08-08T06:25:08.023Z,10.18
2017-08-08T06:27:35.524Z,10.40
2017-08-08T06:30:03.042Z,9.30
2017-08-08T06:32:30.535Z,11.48
2017-08-08T06:34:58.050Z,8.65
2017-08-08T06:37:26.310Z,9.82
2017-08-08T06:39:54.593Z,8.27
2017-08-08T06:42:22.090Z,11.12
2017-08-08T06:44:49.606Z,9.00
2017-08-08T06:47:17.095Z,11.00
2017-08-08T06:49:44.605Z,8.27
2017-08-08T06:52:12.103Z,10.48
2017-08-08T06:54:40.358Z,7.90
2017-08-08T06:57:07.875Z,6.65
2017-08-08T06:59:35.367Z,6.80
2017-08-08T07:02:02.880Z,7.22
2017-08-08T07:04:30.381Z,6.05
2017-08-08T07:06:57.894Z,8.32
2017-08-08T07:09:25.386Z,5.70
2017-08-08T07:11:52.899Z,5.12
2017-08-08T07:14:20.394Z,5.55
2017-08-08T07:16:47.926Z,6.82
2017-08-08T07:19:15.431Z,10.48
2017-08-08T07:21:42.938Z,8.73
2017-08-08T07:24:10.430Z,6.07
2017-08-08T07:26:37.942Z,6.45
2017-08-08T07:29:06.199Z,7.55
2017-08-08T07:31:34.467Z,4.55
2017-08-08T07:34:01.987Z,4.85
2017-08-08T07:36:29.512Z,8.95
2017-08-08T07:38:57.798Z,4.32
2017-08-08T07:41:25.298Z,5.95
2017-08-08T07:43:52.818Z,5.95
2017-08-08T07:46:20.315Z,3.97
2017-08-08T07:48:47.855Z,6.00
2017-08-08T07:51:15.352Z,4.45
2017-08-08T07:53:42.870Z,5.60
2017-08-08T07:56:10.362Z,4.78
2017-08-08T07:58:37.879Z,4.40
2017-08-08T08:01:05.370Z,6.93
2017-08-08T08:03:32.853Z,5.00
2017-08-08T08:06:00.362Z,4.75
2017-08-08T08:08:27.858Z,4.05
2017-08-08T08:10:55.370Z,4.87
2017-08-08T08:13:22.867Z,6.68
2017-08-08T08:15:50.381Z,6.68
2017-08-08T08:18:17.883Z,6.20
2017-08-08T08:20:45.402Z,5.50
2017-08-08T08:23:12.903Z,11.00
2017-08-08T08:25:40.422Z,7.43
2017-08-08T08:28:07.918Z,6.65
2017-08-08T08:30:35.606Z,6.37
2017-08-08T08:33:03.098Z,7.05
2017-08-08T08:35:30.585Z,4.05
2017-08-08T08:37:58.099Z,8.57
2017-08-08T08:40:26.360Z,6.95
2017-08-08T08:42:53.874Z,3.83
2017-08-08T08:45:21.366Z,5.25
2017-08-08T08:47:48.901Z,3.95
2017-08-08T08:50:16.406Z,10.27
2017-08-08T08:52:44.686Z,5.90
2017-08-08T08:55:12.947Z,4.70
2017-08-08T08:57:40.470Z,4.18
2017-08-08T09:00:07.962Z,6.00
2017-08-08T09:02:35.487Z,4.93
2017-08-08T09:05:02.983Z,6.75
2017-08-08T09:07:30.482Z,4.82
2017-08-08T09:09:58.007Z,11.18
2017-08-08T09:12:26.271Z,4.15
2017-08-08T09:14:53.790Z,3.42
2017-08-08T09:17:21.289Z,7.35
2017-08-08T09:19:48.803Z,6.68
2017-08-08T09:22:16.300Z,9.45
2017-08-08T09:24:43.810Z,4.85
2017-08-08T09:27:11.306Z,13.88
2017-08-08T09:29:38.829Z,9.68
2017-08-08T09:32:06.327Z,5.25
2017-08-08T09:34:33.824Z,7.70
2017-08-08T09:37:02.119Z,8.70
2017-08-08T09:39:29.628Z,6.35
2017-08-08T09:41:57.144Z,8.15
2017-08-08T09:44:24.640Z,9.90
2017-08-08T09:46:52.158Z,6.25
2017-08-08T09:49:19.653Z,7.47
2017-08-08T09:51:47.161Z,9.60
2017-08-08T09:54:15.422Z,6.37
2017-08-08T09:56:43.705Z,4.20
2017-08-08T09:59:11.971Z,11.63
2017-08-08T10:01:39.465Z,5.35
2017-08-08T10:04:06.977Z,6.28
2017-08-08T10:06:34.478Z,7.78
2017-08-08T10:09:01.994Z,6.43
2017-08-08T10:11:29.508Z,6.00
2017-08-08T10:13:57.014Z,7.40
2017-08-08T10:16:24.516Z,7.90
2017-08-08T10:18:52.041Z,12.98
2017-08-08T10:21:19.544Z,7.30
2017-08-08T10:23:47.063Z,6.50
2017-08-08T10:26:15.323Z,7.20
2017-08-08T10:28:42.846Z,6.22
2017-08-08T10:31:10.342Z,5.60
2017-08-08T10:33:37.865Z,10.63
2017-08-08T10:36:05.407Z,9.32
2017-08-08T10:38:32.905Z,5.68
2017-08-08T10:41:00.418Z,4.30
2017-08-08T10:43:27.915Z,8.77
2017-08-08T10:45:55.438Z,6.70
2017-08-08T10:48:22.936Z,4.35
2017-08-08T10:50:50.454Z,5.12
2017-08-08T10:53:17.953Z,4.85
2017-08-08T10:55:45.470Z,6.50
2017-08-08T10:58:12.970Z,5.37
2017-08-08T11:00:40.509Z,3.35
2017-08-08T11:03:08.002Z,3.83
2017-08-08T11:05:35.498Z,4.87
2017-08-08T11:08:03.037Z,14.73
2017-08-08T11:10:31.309Z,6.55
2017-08-08T11:12:58.827Z,4.15
2017-08-08T11:15:26.326Z,6.78
2017-08-08T11:17:53.854Z,3.28
2017-08-08T11:20:21.349Z,8.02
2017-08-08T11:22:48.866Z,5.28
2017-08-08T11:25:16.367Z,5.62
2017-08-08T11:27:43.888Z,4.90
2017-08-08T11:30:11.386Z,12.15
2017-08-08T11:32:38.922Z,8.05
2017-08-08T11:35:06.415Z,6.10
2017-08-08T11:37:34.677Z,5.60
2017-08-08T11:40:02.194Z,5.30
2017-08-08T11:42:29.687Z,9.38
2017-08-08T11:44:57.205Z,6.35
2017-08-08T11:47:24.711Z,15.68
2017-08-08T11:49:52.226Z,24.10
2017-08-08T11:52:19.733Z,7.82
2017-08-08T11:54:47.263Z,12.32
2017-08-08T11:57:14.762Z,7.55
2017-08-08T11:59:42.287Z,9.88
2017-08-08T12:02:09.787Z,8.25
2017-08-08T12:04:38.087Z,9.18
2017-08-08T12:07:05.586Z,5.95
2017-08-08T12:09:33.105Z,7.82
2017-08-08T12:12:00.615Z,6.05
2017-08-08T12:14:28.109Z,6.50
2017-08-08T12:16:55.630Z,4.30
2017-08-08T12:19:23.136Z,3.75
2017-08-08T12:21:50.654Z,3.78
2017-08-08T12:24:18.165Z,4.05
2017-08-08T12:26:45.686Z,4.32
2017-08-08T12:29:13.946Z,4.78
2017-08-08T12:31:41.466Z,7.28
2017-08-08T12:34:08.966Z,5.55
2017-08-08T12:36:36.481Z,6.90
2017-08-08T12:39:03.983Z,8.05
2017-08-08T12:41:31.490Z,6.72
2017-08-08T12:43:59.006Z,5.93
2017-08-08T12:46:26.503Z,5.40
2017-08-08T12:48:54.022Z,4.43
2017-08-08T12:51:21.544Z,5.50
2017-08-08T12:53:49.072Z,4.85
2017-08-08T12:56:16.582Z,12.98
2017-08-08T12:58:44.096Z,6.93
2017-08-08T13:01:11.594Z,5.05
2017-08-08T13:03:39.109Z,6.70
2017-08-08T13:06:06.602Z,8.52
2017-08-08T13:08:34.123Z,14.05
2017-08-08T13:11:01.614Z,8.80
2017-08-08T13:13:29.109Z,6.47
2017-08-08T13:15:56.620Z,4.75
2017-08-08T13:18:24.122Z,6.28
2017-08-08T13:20:51.637Z,4.60
2017-08-08T13:23:19.134Z,6.95
2017-08-08T13:25:46.647Z,4.45
2017-08-08T13:28:14.147Z,5.87
2017-08-08T13:30:41.666Z,3.35
2017-08-08T13:33:09.170Z,9.80
2017-08-08T13:35:36.687Z,5.57
2017-08-08T13:38:04.181Z,5.47
2017-08-08T13:40:31.706Z,5.47
2017-08-08T13:42:59.201Z,8.73
2017-08-08T13:45:26.705Z,10.13
2017-08-08T13:47:54.231Z,5.18
2017-08-08T13:50:21.722Z,4.20
2017-08-08T13:52:49.242Z,4.50
2017-08-08T13:55:16.737Z,4.62
2017-08-08T13:57:44.251Z,4.37
2017-08-08T14:00:11.746Z,6.07
2017-08-08T14:02:40.030Z,5.68
2017-08-08T14:05:07.536Z,5.68
2017-08-08T14:07:35.078Z,8.45
2017-08-08T14:10:02.579Z,3.97
2017-08-08T14:12:30.071Z,4.87
2017-08-08T14:14:57.601Z,6.82
2017-08-08T14:17:25.099Z,6.18
2017-08-08T14:19:53.469Z,5.78
2017-08-08T14:22:20.967Z,4.80
2017-08-08T14:24:48.482Z,8.25
2017-08-08T14:27:15.983Z,4.55
2017-08-08T14:29:43.498Z,4.18
2017-08-08T14:32:10.999Z,5.70
2017-08-08T14:34:38.520Z,5.35
2017-08-08T14:37:06.024Z,4.95
2017-08-08T14:39:33.554Z,11.60
2017-08-08T14:42:01.041Z,9.35
2017-08-08T14:44:28.564Z,6.60
2017-08-08T14:46:56.062Z,6.50
2017-08-08T14:49:23.588Z,4.47
2017-08-08T14:51:51.101Z,5.10
2017-08-08T14:54:18.594Z,6.82
2017-08-08T14:56:46.114Z,8.45
2017-08-08T14:59:13.609Z,6.65
2017-08-08T15:01:41.123Z,5.43
2017-08-08T15:04:08.614Z,4.78
2017-08-08T15:06:36.894Z,6.15
2017-08-08T15:09:04.386Z,5.87
2017-08-08T15:11:31.900Z,3.50
2017-08-08T15:14:00.163Z,4.18
2017-08-08T15:16:27.676Z,8.80
2017-08-08T15:18:55.166Z,2.85
2017-08-08T15:21:22.685Z,2.50
2017-08-08T15:23:50.182Z,5.32
2017-08-08T15:26:17.675Z,6.25
2017-08-08T15:28:45.958Z,2.05
2017-08-08T15:31:14.218Z,4.75
2017-08-08T15:33:41.735Z,2.40
2017-08-08T15:36:09.231Z,3.40
2017-08-08T15:38:36.743Z,3.65
2017-08-08T15:41:04.243Z,1.70
2017-08-08T15:43:31.755Z,3.37
2017-08-08T15:45:59.254Z,2.10
2017-08-08T15:48:26.790Z,4.90
2017-08-08T15:50:54.286Z,4.30
2017-08-08T15:53:21.778Z,1.70
2017-08-08T15:55:49.290Z,1.55
2017-08-08T15:58:16.786Z,16.48
2017-08-08T16:00:45.061Z,3.92
2017-08-08T16:03:13.318Z,1.95
2017-08-08T16:05:40.829Z,4.43
2017-08-08T16:08:08.322Z,1.60
2017-08-08T16:10:35.835Z,2.03
2017-08-08T16:13:03.326Z,2.95
2017-08-08T16:15:30.833Z,2.55
2017-08-08T16:17:59.090Z,2.25
2017-08-08T16:20:26.605Z,2.60
2017-08-08T16:22:54.098Z,3.12
2017-08-08T16:25:21.586Z,3.50
2017-08-08T16:27:49.870Z,2.53
2017-08-08T16:30:17.367Z,3.15
2017-08-08T16:32:44.882Z,3.33
2017-08-08T16:35:13.179Z,2.62
2017-08-08T16:37:40.698Z,5.20
2017-08-08T16:40:08.191Z,1.98
2017-08-08T16:42:35.698Z,4.22
2017-08-08T16:45:03.209Z,3.58
2017-08-08T16:47:30.722Z,2.30
2017-08-08T16:49:58.222Z,3.42
2017-08-08T16:52:25.742Z,2.25
2017-08-08T16:54:53.238Z,2.75
2017-08-08T16:57:20.738Z,3.37
2017-08-08T16:59:48.249Z,6.70
2017-08-08T17:02:15.738Z,2.12
2017-08-08T17:04:43.251Z,3.35
2017-08-08T17:07:11.513Z,2.45
2017-08-08T17:09:39.026Z,3.03
2017-08-08T17:12:06.529Z,3.45
2017-08-08T17:14:34.056Z,2.00
2017-08-08T17:17:01.553Z,2.37
2017-08-08T17:19:29.065Z,2.85
2017-08-08T17:21:56.550Z,5.32
2017-08-08T17:24:24.070Z,3.10
2017-08-08T17:26:51.566Z,3.08
2017-08-08T17:29:19.083Z,3.45
2017-08-08T17:31:46.597Z,2.58
2017-08-08T17:34:14.094Z,2.67
2017-08-08T17:36:41.611Z,4.78
2017-08-08T17:39:09.111Z,1.98
2017-08-08T17:41:36.628Z,2.30
2017-08-08T17:44:04.114Z,2.22
2017-08-08T17:46:31.629Z,3.15
2017-08-08T17:48:59.119Z,3.20
2017-08-08T17:51:26.645Z,2.67
2017-08-08T17:53:54.138Z,3.45
2017-08-08T17:56:22.413Z,6.20
2017-08-08T17:58:49.911Z,2.97
2017-08-08T18:01:17.426Z,2.60
2017-08-08T18:03:44.918Z,3.05
2017-08-08T18:06:12.413Z,3.55
2017-08-08T18:08:39.918Z,2.53
2017-08-08T18:11:08.182Z,5.37
2017-08-08T18:13:35.690Z,3.40
2017-08-08T18:16:03.183Z,7.68
2017-08-08T18:18:30.698Z,3.83
2017-08-08T18:20:58.190Z,2.85
2017-08-08T18:23:25.711Z,3.97
2017-08-08T18:25:53.198Z,2.50
2017-08-08T18:28:20.714Z,5.47
2017-08-08T18:30:48.979Z,7.05
2017-08-08T18:33:17.266Z,2.92
2017-08-08T18:35:45.525Z,4.37
2017-08-08T18:38:13.023Z,2.80
2017-08-08T18:40:40.537Z,3.10
2017-08-08T18:43:08.030Z,2.47
2017-08-08T18:45:35.545Z,2.00
2017-08-08T18:48:03.039Z,1.50
2017-08-08T18:50:31.314Z,2.15
2017-08-08T18:52:59.575Z,1.40
2017-08-08T18:55:27.085Z,6.47
2017-08-08T18:57:54.582Z,1.70
2017-08-08T19:00:22.090Z,3.37
2017-08-08T19:02:49.587Z,2.80
2017-08-08T19:05:17.101Z,2.12
2017-08-08T19:07:44.590Z,2.22
2017-08-08T19:10:12.094Z,2.17
2017-08-08T19:12:39.587Z,1.92
2017-08-08T19:15:07.104Z,4.20
2017-08-08T19:17:35.363Z,2.75
2017-08-08T19:20:02.884Z,3.55
2017-08-08T19:22:30.373Z,2.30
2017-08-08T19:24:57.867Z,5.85
2017-08-08T19:27:26.145Z,7.70
2017-08-08T19:29:54.406Z,10.25
2017-08-08T19:32:21.918Z,6.72
2017-08-08T19:34:49.417Z,4.43
2017-08-08T19:37:16.934Z,8.13
2017-08-08T19:39:44.430Z,12.32
2017-08-08T19:42:11.940Z,3.85
2017-08-08T19:44:39.439Z,3.37
2017-08-08T19:47:06.951Z,5.65
2017-08-08T19:49:34.447Z,3.83
2017-08-08T19:52:01.961Z,3.58
2017-08-08T19:54:29.449Z,7.62
2017-08-08T19:56:56.972Z,5.40
2017-08-08T19:59:25.230Z,2.53
2017-08-08T20:01:52.738Z,2.20
2017-08-08T20:04:20.242Z,5.32
2017-08-08T20:06:47.765Z,6.10
2017-08-08T20:09:15.253Z,3.45
2017-08-08T20:11:42.748Z,6.62
2017-08-08T20:14:10.258Z,4.05
2017-08-08T20:16:37.761Z,4.10
2017-08-08T20:19:05.277Z,3.35
2017-08-08T20:21:32.766Z,6.95
2017-08-08T20:24:01.042Z,4.20
2017-08-08T20:26:28.539Z,4.55
2017-08-08T20:28:56.050Z,4.28
2017-08-08T20:31:23.546Z,4.35
2017-08-08T20:33:51.057Z,3.42
2017-08-08T20:36:18.551Z,2.70
2017-08-08T20:38:46.041Z,3.72
2017-08-08T20:41:13.554Z,1.60
2017-08-08T20:43:41.051Z,2.83
2017-08-08T20:46:08.561Z,1.80
2017-08-08T20:48:36.051Z,2.42
2017-08-08T20:51:03.557Z,4.22
2017-08-08T20:53:31.055Z,2.35
2017-08-08T20:55:59.331Z,2.97
2017-08-08T20:58:27.589Z,5.32
2017-08-08T21:00:55.095Z,1.55
2017-08-08T21:03:22.598Z,2.03
2017-08-08T21:05:50.118Z,5.75
2017-08-08T21:08:17.614Z,5.50
2017-08-08T21:10:45.125Z,2.28
2017-08-08T21:13:12.613Z,4.05
2017-08-08T21:15:40.108Z,1.25
2017-08-08T21:18:07.622Z,3.05
2017-08-08T21:20:35.114Z,1.50
2017-08-08T21:23:02.638Z,2.92
2017-08-08T21:25:30.126Z,2.97
2017-08-08T21:27:57.646Z,1.08
2017-08-08T21:30:25.139Z,1.23
2017-08-08T21:32:52.650Z,2.83
2017-08-08T21:35:20.144Z,2.00
2017-08-08T21:37:47.668Z,2.00
2017-08-08T21:40:15.154Z,2.35
2017-08-08T21:42:42.666Z,2.97
2017-08-08T21:45:10.930Z,1.58
2017-08-08T21:47:39.206Z,1.52
2017-08-08T21:50:06.697Z,2.40
2017-08-08T21:52:34.199Z,2.45
2017-08-08T21:55:01.706Z,2.55
2017-08-08T21:57:29.206Z,2.05
2017-08-08T21:59:56.722Z,1.73
2017-08-08T22:02:24.214Z,1.35
2017-08-08T22:04:51.722Z,1.65
2017-08-08T22:07:19.990Z,2.00
2017-08-08T22:09:47.502Z,2.33
2017-08-08T22:12:14.998Z,1.37
2017-08-08T22:14:42.505Z,3.15
2017-08-08T22:17:09.993Z,2.08
2017-08-08T22:19:37.506Z,1.62
2017-08-08T22:22:04.997Z,1.95
2017-08-08T22:24:32.514Z,1.98
2017-08-08T22:27:00.769Z,1.62
2017-08-08T22:29:28.283Z,2.85
2017-08-08T22:31:55.778Z,1.10
2017-08-08T22:34:23.269Z,2.55
2017-08-08T22:36:51.546Z,2.75
2017-08-08T22:39:19.798Z,2.33
2017-08-08T22:41:47.302Z,3.33
2017-08-08T22:44:14.795Z,3.28
2017-08-08T22:46:42.310Z,2.35
2017-08-08T22:49:09.826Z,1.33
2017-08-08T22:51:37.334Z,5.20
2017-08-08T22:54:04.821Z,2.67
2017-08-08T22:56:32.335Z,3.33
2017-08-08T22:59:00.595Z,1.10
2017-08-08T23:01:28.118Z,1.75
2017-08-08T23:03:55.605Z,1.30
2017-08-08T23:06:23.134Z,3.03
2017-08-08T23:08:50.625Z,4.60
2017-08-08T23:11:18.122Z,26.58
2017-08-08T23:13:45.633Z,2.03
2017-08-08T23:16:13.130Z,1.30
2017-08-08T23:18:40.646Z,1.65
2017-08-08T23:21:08.142Z,2.90
2017-08-08T23:23:35.657Z,2.40
2017-08-08T23:26:03.161Z,2.55
2017-08-08T23:28:31.442Z,2.17
2017-08-08T23:30:58.937Z,3.15
2017-08-08T23:33:26.454Z,2.72
2017-08-08T23:35:54.709Z,1.33
2017-08-08T23:38:22.219Z,3.45
2017-08-08T23:40:49.710Z,1.95
2017-08-08T23:43:17.202Z,1.50
2017-08-08T23:45:45.483Z,2.25
2017-08-08T23:48:13.742Z,2.97
2017-08-08T23:50:41.254Z,5.97
2017-08-08T23:53:08.737Z,2.08
2017-08-08T23:55:36.241Z,2.10
2017-08-08T23:58:03.729Z,2.90
